sensor_id;sensor_type;location;lat;lon;timestamp;P1;durP1;ratioP1;P2;durP2;ratioP2
19869;SDS011;10097;50.862;4.696;2023-03-11T00:00:48;9.53;;;1.80;;
19869;SDS011;10097;50.862;4.696;2023-03-11T00:03:15;9.40;;;2.00;;
19869;SDS011;10097;50.862;4.696;2023-03-11T00:05:42;13.50;;;2.30;;
19869;SDS011;10097;50.862;4.696;2023-03-11T00:08:10;13.03;;;2.50;;
19869;SDS011;10097;50.862;4.696;2023-03-11T00:10:39;14.03;;;2.60;;
19869;SDS011;10097;50.862;4.696;2023-03-11T00:13:07;8.10;;;2.07;;
19869;SDS011;10097;50.862;4.696;2023-03-11T00:15:34;14.97;;;2.77;;
19869;SDS011;10097;50.862;4.696;2023-03-11T00:18:01;9.20;;;2.03;;
19869;SDS011;10097;50.862;4.696;2023-03-11T00:20:28;12.23;;;2.77;;
19869;SDS011;10097;50.862;4.696;2023-03-11T00:22:56;8.43;;;1.97;;
19869;SDS011;10097;50.862;4.696;2023-03-11T00:25:23;11.83;;;2.40;;
19869;SDS011;10097;50.862;4.696;2023-03-11T00:27:51;11.50;;;3.07;;
19869;SDS011;10097;50.862;4.696;2023-03-11T00:30:18;6.73;;;2.27;;
19869;SDS011;10097;50.862;4.696;2023-03-11T00:32:45;9.97;;;2.33;;
19869;SDS011;10097;50.862;4.696;2023-03-11T00:35:13;8.90;;;2.20;;
19869;SDS011;10097;50.862;4.696;2023-03-11T00:37:41;14.40;;;2.30;;
19869;SDS011;10097;50.862;4.696;2023-03-11T00:40:17;11.43;;;2.27;;
19869;SDS011;10097;50.862;4.696;2023-03-11T00:42:44;9.53;;;2.70;;
19869;SDS011;10097;50.862;4.696;2023-03-11T00:45:10;8.90;;;2.50;;
19869;SDS011;10097;50.862;4.696;2023-03-11T00:47:36;6.67;;;2.27;;
19869;SDS011;10097;50.862;4.696;2023-03-11T00:50:03;12.83;;;2.60;;
19869;SDS011;10097;50.862;4.696;2023-03-11T00:52:29;6.87;;;2.10;;
19869;SDS011;10097;50.862;4.696;2023-03-11T00:54:54;13.23;;;2.10;;
19869;SDS011;10097;50.862;4.696;2023-03-11T00:57:20;13.50;;;2.87;;
19869;SDS011;10097;50.862;4.696;2023-03-11T00:59:46;10.03;;;2.37;;
19869;SDS011;10097;50.862;4.696;2023-03-11T01:02:12;9.63;;;2.13;;
19869;SDS011;10097;50.862;4.696;2023-03-11T01:04:38;14.67;;;2.90;;
19869;SDS011;10097;50.862;4.696;2023-03-11T01:07:03;12.83;;;2.43;;
19869;SDS011;10097;50.862;4.696;2023-03-11T01:09:29;11.90;;;2.90;;
19869;SDS011;10097;50.862;4.696;2023-03-11T01:11:55;10.27;;;2.10;;
19869;SDS011;10097;50.862;4.696;2023-03-11T01:14:21;13.43;;;2.50;;
19869;SDS011;10097;50.862;4.696;2023-03-11T01:16:47;6.70;;;2.47;;
19869;SDS011;10097;50.862;4.696;2023-03-11T01:19:13;8.40;;;2.40;;
19869;SDS011;10097;50.862;4.696;2023-03-11T01:21:39;9.60;;;2.57;;
19869;SDS011;10097;50.862;4.696;2023-03-11T01:24:04;7.93;;;2.17;;
19869;SDS011;10097;50.862;4.696;2023-03-11T01:26:30;10.50;;;2.13;;
19869;SDS011;10097;50.862;4.696;2023-03-11T01:28:56;10.33;;;2.40;;
19869;SDS011;10097;50.862;4.696;2023-03-11T01:31:21;7.80;;;2.33;;
19869;SDS011;10097;50.862;4.696;2023-03-11T01:33:47;9.20;;;2.17;;
19869;SDS011;10097;50.862;4.696;2023-03-11T01:36:13;8.07;;;2.20;;
19869;SDS011;10097;50.862;4.696;2023-03-11T01:38:38;6.57;;;1.93;;
19869;SDS011;10097;50.862;4.696;2023-03-11T01:41:04;11.53;;;2.73;;
19869;SDS011;10097;50.862;4.696;2023-03-11T01:43:45;10.43;;;2.17;;
19869;SDS011;10097;50.862;4.696;2023-03-11T01:49:02;9.57;;;2.53;;
19869;SDS011;10097;50.862;4.696;2023-03-11T01:51:30;13.80;;;2.50;;
19869;SDS011;10097;50.862;4.696;2023-03-11T01:54:05;5.53;;;2.10;;
19869;SDS011;10097;50.862;4.696;2023-03-11T01:56:34;8.70;;;2.13;;
19869;SDS011;10097;50.862;4.696;2023-03-11T01:59:01;10.47;;;2.07;;
19869;SDS011;10097;50.862;4.696;2023-03-11T02:01:27;10.90;;;2.47;;
19869;SDS011;10097;50.862;4.696;2023-03-11T02:03:53;11.07;;;2.30;;
19869;SDS011;10097;50.862;4.696;2023-03-11T02:06:21;5.40;;;1.90;;
19869;SDS011;10097;50.862;4.696;2023-03-11T02:08:48;8.40;;;2.53;;
19869;SDS011;10097;50.862;4.696;2023-03-11T02:11:23;11.13;;;2.10;;
19869;SDS011;10097;50.862;4.696;2023-03-11T02:13:53;8.03;;;2.53;;
19869;SDS011;10097;50.862;4.696;2023-03-11T02:16:22;10.83;;;2.43;;
19869;SDS011;10097;50.862;4.696;2023-03-11T02:18:47;7.70;;;2.30;;
19869;SDS011;10097;50.862;4.696;2023-03-11T02:21:22;9.03;;;2.40;;
19869;SDS011;10097;50.862;4.696;2023-03-11T02:26:40;7.40;;;2.00;;
19869;SDS011;10097;50.862;4.696;2023-03-11T02:29:29;9.20;;;1.80;;
19869;SDS011;10097;50.862;4.696;2023-03-11T02:31:57;10.80;;;2.60;;
19869;SDS011;10097;50.862;4.696;2023-03-11T02:34:27;7.67;;;2.00;;
19869;SDS011;10097;50.862;4.696;2023-03-11T02:36:55;12.00;;;2.10;;
19869;SDS011;10097;50.862;4.696;2023-03-11T02:39:36;7.03;;;2.13;;
19869;SDS011;10097;50.862;4.696;2023-03-11T02:47:30;9.97;;;2.13;;
19869;SDS011;10097;50.862;4.696;2023-03-11T02:49:57;10.97;;;2.60;;
19869;SDS011;10097;50.862;4.696;2023-03-11T02:52:29;14.87;;;2.47;;
19869;SDS011;10097;50.862;4.696;2023-03-11T02:54:57;12.40;;;2.33;;
19869;SDS011;10097;50.862;4.696;2023-03-11T02:57:23;9.03;;;2.07;;
19869;SDS011;10097;50.862;4.696;2023-03-11T02:59:49;7.50;;;2.07;;
19869;SDS011;10097;50.862;4.696;2023-03-11T03:02:14;8.97;;;2.10;;
19869;SDS011;10097;50.862;4.696;2023-03-11T03:04:40;10.13;;;2.00;;
19869;SDS011;10097;50.862;4.696;2023-03-11T03:07:06;11.17;;;2.33;;
19869;SDS011;10097;50.862;4.696;2023-03-11T03:09:31;7.93;;;2.57;;
19869;SDS011;10097;50.862;4.696;2023-03-11T03:11:58;10.70;;;2.27;;
19869;SDS011;10097;50.862;4.696;2023-03-11T03:14:24;9.63;;;2.10;;
19869;SDS011;10097;50.862;4.696;2023-03-11T03:16:49;6.57;;;1.87;;
19869;SDS011;10097;50.862;4.696;2023-03-11T03:19:15;6.13;;;2.20;;
19869;SDS011;10097;50.862;4.696;2023-03-11T03:21:41;12.27;;;2.23;;
19869;SDS011;10097;50.862;4.696;2023-03-11T03:24:06;11.13;;;2.40;;
19869;SDS011;10097;50.862;4.696;2023-03-11T03:26:32;10.40;;;2.27;;
19869;SDS011;10097;50.862;4.696;2023-03-11T03:28:58;5.67;;;2.17;;
19869;SDS011;10097;50.862;4.696;2023-03-11T03:31:23;10.23;;;2.20;;
19869;SDS011;10097;50.862;4.696;2023-03-11T03:33:49;7.53;;;2.23;;
19869;SDS011;10097;50.862;4.696;2023-03-11T03:36:15;10.67;;;2.70;;
19869;SDS011;10097;50.862;4.696;2023-03-11T03:38:40;8.80;;;2.33;;
19869;SDS011;10097;50.862;4.696;2023-03-11T03:41:06;11.83;;;2.43;;
19869;SDS011;10097;50.862;4.696;2023-03-11T03:43:32;19.90;;;2.87;;
19869;SDS011;10097;50.862;4.696;2023-03-11T03:46:02;7.80;;;2.40;;
19869;SDS011;10097;50.862;4.696;2023-03-11T03:48:29;11.17;;;2.83;;
19869;SDS011;10097;50.862;4.696;2023-03-11T03:50:56;12.33;;;2.10;;
19869;SDS011;10097;50.862;4.696;2023-03-11T03:53:25;14.20;;;2.67;;
19869;SDS011;10097;50.862;4.696;2023-03-11T03:55:51;11.77;;;2.27;;
19869;SDS011;10097;50.862;4.696;2023-03-11T03:58:18;8.90;;;2.37;;
19869;SDS011;10097;50.862;4.696;2023-03-11T04:00:44;15.00;;;2.77;;
19869;SDS011;10097;50.862;4.696;2023-03-11T04:03:09;9.83;;;2.33;;
19869;SDS011;10097;50.862;4.696;2023-03-11T04:05:35;13.33;;;3.13;;
19869;SDS011;10097;50.862;4.696;2023-03-11T04:08:01;9.83;;;2.90;;
19869;SDS011;10097;50.862;4.696;2023-03-11T04:10:26;8.53;;;2.60;;
19869;SDS011;10097;50.862;4.696;2023-03-11T04:12:52;12.77;;;2.47;;
19869;SDS011;10097;50.862;4.696;2023-03-11T04:15:18;8.60;;;2.10;;
19869;SDS011;10097;50.862;4.696;2023-03-11T04:17:43;9.03;;;2.27;;
19869;SDS011;10097;50.862;4.696;2023-03-11T04:20:09;12.33;;;2.73;;
19869;SDS011;10097;50.862;4.696;2023-03-11T04:22:35;13.67;;;2.30;;
19869;SDS011;10097;50.862;4.696;2023-03-11T04:25:01;11.57;;;2.73;;
19869;SDS011;10097;50.862;4.696;2023-03-11T04:27:27;7.33;;;2.20;;
19869;SDS011;10097;50.862;4.696;2023-03-11T04:29:53;13.57;;;2.57;;
19869;SDS011;10097;50.862;4.696;2023-03-11T04:32:19;14.07;;;2.67;;
19869;SDS011;10097;50.862;4.696;2023-03-11T04:34:46;9.10;;;2.47;;
19869;SDS011;10097;50.862;4.696;2023-03-11T04:37:12;12.03;;;3.13;;
19869;SDS011;10097;50.862;4.696;2023-03-11T04:39:37;12.47;;;2.50;;
19869;SDS011;10097;50.862;4.696;2023-03-11T04:42:03;12.03;;;2.80;;
19869;SDS011;10097;50.862;4.696;2023-03-11T04:44:29;13.50;;;3.30;;
19869;SDS011;10097;50.862;4.696;2023-03-11T04:46:54;12.33;;;3.00;;
19869;SDS011;10097;50.862;4.696;2023-03-11T04:49:21;12.90;;;4.67;;
19869;SDS011;10097;50.862;4.696;2023-03-11T04:51:46;8.07;;;3.03;;
19869;SDS011;10097;50.862;4.696;2023-03-11T04:54:12;10.90;;;2.60;;
19869;SDS011;10097;50.862;4.696;2023-03-11T04:56:38;8.07;;;2.73;;
19869;SDS011;10097;50.862;4.696;2023-03-11T04:59:03;9.80;;;2.50;;
19869;SDS011;10097;50.862;4.696;2023-03-11T05:01:29;13.73;;;2.53;;
19869;SDS011;10097;50.862;4.696;2023-03-11T05:03:55;9.73;;;3.00;;
19869;SDS011;10097;50.862;4.696;2023-03-11T05:06:20;8.63;;;3.37;;
19869;SDS011;10097;50.862;4.696;2023-03-11T05:08:46;12.70;;;3.40;;
19869;SDS011;10097;50.862;4.696;2023-03-11T05:11:12;9.47;;;2.73;;
19869;SDS011;10097;50.862;4.696;2023-03-11T05:13:37;11.00;;;2.93;;
19869;SDS011;10097;50.862;4.696;2023-03-11T05:16:03;11.83;;;3.33;;
19869;SDS011;10097;50.862;4.696;2023-03-11T05:18:29;11.13;;;2.70;;
19869;SDS011;10097;50.862;4.696;2023-03-11T05:20:56;10.50;;;2.90;;
19869;SDS011;10097;50.862;4.696;2023-03-11T05:23:22;9.77;;;3.00;;
19869;SDS011;10097;50.862;4.696;2023-03-11T05:25:47;7.37;;;2.73;;
19869;SDS011;10097;50.862;4.696;2023-03-11T05:28:13;10.63;;;3.30;;
19869;SDS011;10097;50.862;4.696;2023-03-11T05:30:39;10.20;;;3.00;;
19869;SDS011;10097;50.862;4.696;2023-03-11T05:33:04;12.87;;;3.57;;
19869;SDS011;10097;50.862;4.696;2023-03-11T05:35:30;10.73;;;3.07;;
19869;SDS011;10097;50.862;4.696;2023-03-11T05:37:56;12.20;;;3.23;;
19869;SDS011;10097;50.862;4.696;2023-03-11T05:40:21;10.80;;;3.37;;
19869;SDS011;10097;50.862;4.696;2023-03-11T05:42:47;10.97;;;3.70;;
19869;SDS011;10097;50.862;4.696;2023-03-11T05:45:13;12.63;;;3.07;;
19869;SDS011;10097;50.862;4.696;2023-03-11T05:47:39;11.27;;;4.33;;
19869;SDS011;10097;50.862;4.696;2023-03-11T05:50:06;14.67;;;3.00;;
19869;SDS011;10097;50.862;4.696;2023-03-11T05:52:33;10.63;;;3.43;;
19869;SDS011;10097;50.862;4.696;2023-03-11T05:54:58;13.33;;;3.20;;
19869;SDS011;10097;50.862;4.696;2023-03-11T05:57:24;14.33;;;3.50;;
19869;SDS011;10097;50.862;4.696;2023-03-11T05:59:52;9.60;;;3.17;;
19869;SDS011;10097;50.862;4.696;2023-03-11T06:02:18;13.37;;;3.30;;
19869;SDS011;10097;50.862;4.696;2023-03-11T06:04:45;16.07;;;3.10;;
19869;SDS011;10097;50.862;4.696;2023-03-11T06:07:11;11.17;;;3.20;;
19869;SDS011;10097;50.862;4.696;2023-03-11T06:09:38;12.30;;;3.47;;
19869;SDS011;10097;50.862;4.696;2023-03-11T06:12:04;8.83;;;3.10;;
19869;SDS011;10097;50.862;4.696;2023-03-11T06:14:30;12.80;;;3.37;;
19869;SDS011;10097;50.862;4.696;2023-03-11T06:16:58;10.03;;;3.30;;
19869;SDS011;10097;50.862;4.696;2023-03-11T06:19:24;14.30;;;2.93;;
19869;SDS011;10097;50.862;4.696;2023-03-11T06:21:50;9.93;;;3.10;;
19869;SDS011;10097;50.862;4.696;2023-03-11T06:24:16;15.90;;;3.17;;
19869;SDS011;10097;50.862;4.696;2023-03-11T06:26:42;12.23;;;3.10;;
19869;SDS011;10097;50.862;4.696;2023-03-11T06:29:10;19.13;;;3.63;;
19869;SDS011;10097;50.862;4.696;2023-03-11T06:31:38;11.90;;;3.40;;
19869;SDS011;10097;50.862;4.696;2023-03-11T06:34:04;8.87;;;3.67;;
19869;SDS011;10097;50.862;4.696;2023-03-11T06:36:30;12.30;;;3.67;;
19869;SDS011;10097;50.862;4.696;2023-03-11T06:38:56;15.87;;;4.17;;
19869;SDS011;10097;50.862;4.696;2023-03-11T06:41:22;15.43;;;3.93;;
19869;SDS011;10097;50.862;4.696;2023-03-11T06:43:48;14.63;;;3.70;;
19869;SDS011;10097;50.862;4.696;2023-03-11T06:46:23;9.80;;;3.80;;
19869;SDS011;10097;50.862;4.696;2023-03-11T06:48:48;20.20;;;4.00;;
19869;SDS011;10097;50.862;4.696;2023-03-11T06:51:17;12.07;;;3.87;;
19869;SDS011;10097;50.862;4.696;2023-03-11T06:53:47;13.17;;;4.20;;
19869;SDS011;10097;50.862;4.696;2023-03-11T06:56:16;15.07;;;3.80;;
19869;SDS011;10097;50.862;4.696;2023-03-11T06:58:43;14.63;;;3.90;;
19869;SDS011;10097;50.862;4.696;2023-03-11T07:03:44;12.93;;;3.93;;
19869;SDS011;10097;50.862;4.696;2023-03-11T07:06:11;17.00;;;5.13;;
19869;SDS011;10097;50.862;4.696;2023-03-11T07:08:41;12.57;;;3.83;;
19869;SDS011;10097;50.862;4.696;2023-03-11T07:11:08;14.90;;;3.80;;
19869;SDS011;10097;50.862;4.696;2023-03-11T07:13:36;13.03;;;4.60;;
19869;SDS011;10097;50.862;4.696;2023-03-11T07:16:06;11.23;;;4.67;;
19869;SDS011;10097;50.862;4.696;2023-03-11T07:18:34;15.23;;;5.07;;
19869;SDS011;10097;50.862;4.696;2023-03-11T07:21:01;17.43;;;5.30;;
19869;SDS011;10097;50.862;4.696;2023-03-11T07:23:27;18.43;;;5.63;;
19869;SDS011;10097;50.862;4.696;2023-03-11T07:25:54;17.87;;;6.30;;
19869;SDS011;10097;50.862;4.696;2023-03-11T07:28:20;19.50;;;5.57;;
19869;SDS011;10097;50.862;4.696;2023-03-11T07:30:48;14.57;;;5.87;;
19869;SDS011;10097;50.862;4.696;2023-03-11T07:33:14;17.57;;;6.10;;
19869;SDS011;10097;50.862;4.696;2023-03-11T07:35:40;16.40;;;6.27;;
19869;SDS011;10097;50.862;4.696;2023-03-11T07:38:06;18.20;;;5.50;;
19869;SDS011;10097;50.862;4.696;2023-03-11T07:40:32;14.10;;;5.50;;
19869;SDS011;10097;50.862;4.696;2023-03-11T07:42:58;15.87;;;5.20;;
19869;SDS011;10097;50.862;4.696;2023-03-11T07:45:24;16.23;;;5.90;;
19869;SDS011;10097;50.862;4.696;2023-03-11T07:47:49;17.87;;;5.50;;
19869;SDS011;10097;50.862;4.696;2023-03-11T07:50:15;15.27;;;5.20;;
19869;SDS011;10097;50.862;4.696;2023-03-11T07:52:41;17.57;;;5.80;;
19869;SDS011;10097;50.862;4.696;2023-03-11T07:55:07;15.40;;;5.70;;
19869;SDS011;10097;50.862;4.696;2023-03-11T07:57:38;17.53;;;6.13;;
19869;SDS011;10097;50.862;4.696;2023-03-11T08:00:04;20.87;;;6.20;;
19869;SDS011;10097;50.862;4.696;2023-03-11T08:02:31;14.10;;;5.90;;
19869;SDS011;10097;50.862;4.696;2023-03-11T08:04:56;15.90;;;5.60;;
19869;SDS011;10097;50.862;4.696;2023-03-11T08:07:22;14.77;;;5.33;;
19869;SDS011;10097;50.862;4.696;2023-03-11T08:09:48;17.33;;;5.23;;
19869;SDS011;10097;50.862;4.696;2023-03-11T08:12:14;16.57;;;5.20;;
19869;SDS011;10097;50.862;4.696;2023-03-11T08:14:41;20.33;;;6.40;;
19869;SDS011;10097;50.862;4.696;2023-03-11T08:17:08;17.27;;;5.50;;
19869;SDS011;10097;50.862;4.696;2023-03-11T08:19:33;14.10;;;5.50;;
19869;SDS011;10097;50.862;4.696;2023-03-11T08:22:00;13.80;;;5.00;;
19869;SDS011;10097;50.862;4.696;2023-03-11T08:24:26;11.60;;;5.07;;
19869;SDS011;10097;50.862;4.696;2023-03-11T08:26:52;18.13;;;4.67;;
19869;SDS011;10097;50.862;4.696;2023-03-11T08:29:19;14.07;;;5.17;;
19869;SDS011;10097;50.862;4.696;2023-03-11T08:31:45;15.00;;;5.00;;
19869;SDS011;10097;50.862;4.696;2023-03-11T08:34:10;18.77;;;4.90;;
19869;SDS011;10097;50.862;4.696;2023-03-11T08:36:36;11.40;;;4.80;;
19869;SDS011;10097;50.862;4.696;2023-03-11T08:39:02;15.00;;;4.63;;
19869;SDS011;10097;50.862;4.696;2023-03-11T08:41:28;15.70;;;4.70;;
19869;SDS011;10097;50.862;4.696;2023-03-11T08:43:54;16.53;;;4.63;;
19869;SDS011;10097;50.862;4.696;2023-03-11T08:46:21;11.23;;;4.80;;
19869;SDS011;10097;50.862;4.696;2023-03-11T08:48:52;17.43;;;3.90;;
19869;SDS011;10097;50.862;4.696;2023-03-11T08:51:19;18.70;;;4.90;;
19869;SDS011;10097;50.862;4.696;2023-03-11T08:53:45;9.30;;;3.60;;
19869;SDS011;10097;50.862;4.696;2023-03-11T08:56:11;13.83;;;4.37;;
19869;SDS011;10097;50.862;4.696;2023-03-11T08:58:37;22.30;;;4.97;;
19869;SDS011;10097;50.862;4.696;2023-03-11T09:01:03;13.80;;;4.93;;
19869;SDS011;10097;50.862;4.696;2023-03-11T09:03:33;11.67;;;4.03;;
19869;SDS011;10097;50.862;4.696;2023-03-11T09:06:01;10.83;;;3.60;;
19869;SDS011;10097;50.862;4.696;2023-03-11T09:08:28;10.03;;;3.30;;
19869;SDS011;10097;50.862;4.696;2023-03-11T09:10:54;12.03;;;3.30;;
19869;SDS011;10097;50.862;4.696;2023-03-11T09:13:19;13.53;;;2.43;;
19869;SDS011;10097;50.862;4.696;2023-03-11T09:15:46;12.37;;;2.70;;
19869;SDS011;10097;50.862;4.696;2023-03-11T09:18:13;9.47;;;2.70;;
19869;SDS011;10097;50.862;4.696;2023-03-11T09:20:40;10.47;;;2.40;;
19869;SDS011;10097;50.862;4.696;2023-03-11T09:23:06;7.57;;;1.80;;
19869;SDS011;10097;50.862;4.696;2023-03-11T09:25:33;7.63;;;2.10;;
19869;SDS011;10097;50.862;4.696;2023-03-11T09:27:59;11.70;;;2.30;;
19869;SDS011;10097;50.862;4.696;2023-03-11T09:30:24;8.83;;;1.70;;
19869;SDS011;10097;50.862;4.696;2023-03-11T09:32:50;5.27;;;1.33;;
19869;SDS011;10097;50.862;4.696;2023-03-11T09:35:16;7.60;;;2.00;;
19869;SDS011;10097;50.862;4.696;2023-03-11T09:37:42;9.57;;;0.93;;
19869;SDS011;10097;50.862;4.696;2023-03-11T09:40:09;4.80;;;1.23;;
19869;SDS011;10097;50.862;4.696;2023-03-11T09:42:49;3.90;;;0.97;;
19869;SDS011;10097;50.862;4.696;2023-03-11T09:45:29;17.63;;;1.33;;
19869;SDS011;10097;50.862;4.696;2023-03-11T09:50:52;11.57;;;1.83;;
19869;SDS011;10097;50.862;4.696;2023-03-11T09:55:53;4.10;;;0.80;;
19869;SDS011;10097;50.862;4.696;2023-03-11T09:58:40;6.80;;;0.80;;
19869;SDS011;10097;50.862;4.696;2023-03-11T10:04:13;4.93;;;0.90;;
19869;SDS011;10097;50.862;4.696;2023-03-11T10:06:54;4.10;;;0.93;;
19869;SDS011;10097;50.862;4.696;2023-03-11T10:14:30;8.03;;;1.20;;
19869;SDS011;10097;50.862;4.696;2023-03-11T10:17:19;4.13;;;0.90;;
19869;SDS011;10097;50.862;4.696;2023-03-11T10:28:12;3.67;;;0.80;;
19869;SDS011;10097;50.862;4.696;2023-03-11T10:30:46;11.67;;;1.03;;
19869;SDS011;10097;50.862;4.696;2023-03-11T10:36:03;7.13;;;1.27;;
19869;SDS011;10097;50.862;4.696;2023-03-11T10:38:36;7.53;;;1.10;;
19869;SDS011;10097;50.862;4.696;2023-03-11T10:41:11;4.77;;;0.70;;
19869;SDS011;10097;50.862;4.696;2023-03-11T10:46:31;5.07;;;0.70;;
19869;SDS011;10097;50.862;4.696;2023-03-11T10:48:56;6.33;;;0.80;;
19869;SDS011;10097;50.862;4.696;2023-03-11T10:51:23;6.77;;;0.90;;
19869;SDS011;10097;50.862;4.696;2023-03-11T10:53:55;5.83;;;1.50;;
19869;SDS011;10097;50.862;4.696;2023-03-11T10:56:24;7.73;;;1.13;;
19869;SDS011;10097;50.862;4.696;2023-03-11T10:58:52;7.67;;;1.20;;
19869;SDS011;10097;50.862;4.696;2023-03-11T11:01:19;11.33;;;1.10;;
19869;SDS011;10097;50.862;4.696;2023-03-11T11:03:52;4.93;;;0.90;;
19869;SDS011;10097;50.862;4.696;2023-03-11T11:06:21;9.97;;;0.90;;
19869;SDS011;10097;50.862;4.696;2023-03-11T11:09:04;8.50;;;1.10;;
19869;SDS011;10097;50.862;4.696;2023-03-11T11:11:41;4.00;;;1.13;;
19869;SDS011;10097;50.862;4.696;2023-03-11T11:14:23;3.80;;;1.30;;
19869;SDS011;10097;50.862;4.696;2023-03-11T11:16:49;6.07;;;0.80;;
19869;SDS011;10097;50.862;4.696;2023-03-11T11:19:16;5.63;;;0.77;;
19869;SDS011;10097;50.862;4.696;2023-03-11T11:21:47;5.77;;;0.90;;
19869;SDS011;10097;50.862;4.696;2023-03-11T11:29:45;4.37;;;0.77;;
19869;SDS011;10097;50.862;4.696;2023-03-11T11:35:32;3.40;;;1.00;;
19869;SDS011;10097;50.862;4.696;2023-03-11T11:37:47;5.10;;;0.93;;
19869;SDS011;10097;50.862;4.696;2023-03-11T11:40:18;5.53;;;0.80;;
19869;SDS011;10097;50.862;4.696;2023-03-11T11:42:50;7.07;;;2.03;;
19869;SDS011;10097;50.862;4.696;2023-03-11T11:45:31;3.20;;;0.73;;
19869;SDS011;10097;50.862;4.696;2023-03-11T11:50:44;7.43;;;1.10;;
19869;SDS011;10097;50.862;4.696;2023-03-11T11:55:48;5.83;;;1.23;;
19869;SDS011;10097;50.862;4.696;2023-03-11T11:58:16;9.03;;;1.10;;
19869;SDS011;10097;50.862;4.696;2023-03-11T12:00:53;7.87;;;1.50;;
19869;SDS011;10097;50.862;4.696;2023-03-11T12:05:57;7.47;;;1.20;;
19869;SDS011;10097;50.862;4.696;2023-03-11T12:08:46;4.60;;;0.80;;
19869;SDS011;10097;50.862;4.696;2023-03-11T12:11:28;6.33;;;0.90;;
19869;SDS011;10097;50.862;4.696;2023-03-11T12:19:38;5.90;;;0.93;;
19869;SDS011;10097;50.862;4.696;2023-03-11T12:27:47;7.30;;;1.43;;
19869;SDS011;10097;50.862;4.696;2023-03-11T12:30:40;7.80;;;1.23;;
19869;SDS011;10097;50.862;4.696;2023-03-11T12:33:12;5.47;;;1.07;;
19869;SDS011;10097;50.862;4.696;2023-03-11T12:36:57;7.13;;;1.23;;
19869;SDS011;10097;50.862;4.696;2023-03-11T12:39:05;8.07;;;1.60;;
19869;SDS011;10097;50.862;4.696;2023-03-11T12:41:43;13.77;;;1.30;;
19869;SDS011;10097;50.862;4.696;2023-03-11T12:44:22;10.13;;;1.23;;
19869;SDS011;10097;50.862;4.696;2023-03-11T12:52:21;5.83;;;0.97;;
19869;SDS011;10097;50.862;4.696;2023-03-11T13:02:51;5.93;;;0.93;;
19869;SDS011;10097;50.862;4.696;2023-03-11T13:08:20;5.17;;;1.10;;
19869;SDS011;10097;50.862;4.696;2023-03-11T13:10:50;5.43;;;0.97;;
19869;SDS011;10097;50.862;4.696;2023-03-11T13:18:37;6.03;;;0.90;;
19869;SDS011;10097;50.862;4.696;2023-03-11T13:21:04;5.87;;;0.80;;
19869;SDS011;10097;50.862;4.696;2023-03-11T13:26:50;9.00;;;1.20;;
19869;SDS011;10097;50.862;4.696;2023-03-11T13:29:26;2.53;;;0.63;;
19869;SDS011;10097;50.862;4.696;2023-03-11T13:32:06;4.30;;;1.33;;
19869;SDS011;10097;50.862;4.696;2023-03-11T13:34:45;7.73;;;1.40;;
19869;SDS011;10097;50.862;4.696;2023-03-11T13:37:50;7.33;;;0.57;;
19869;SDS011;10097;50.862;4.696;2023-03-11T13:43:09;6.37;;;0.80;;
19869;SDS011;10097;50.862;4.696;2023-03-11T13:45:53;6.57;;;0.77;;
19869;SDS011;10097;50.862;4.696;2023-03-11T13:49:29;8.37;;;1.17;;
19869;SDS011;10097;50.862;4.696;2023-03-11T13:51:38;5.60;;;1.00;;
19869;SDS011;10097;50.862;4.696;2023-03-11T13:54:23;7.00;;;1.03;;
19869;SDS011;10097;50.862;4.696;2023-03-11T13:57:23;3.37;;;0.77;;
19869;SDS011;10097;50.862;4.696;2023-03-11T13:59:53;4.33;;;0.80;;
19869;SDS011;10097;50.862;4.696;2023-03-11T14:02:20;6.03;;;1.10;;
19869;SDS011;10097;50.862;4.696;2023-03-11T14:05:02;6.33;;;0.97;;
19869;SDS011;10097;50.862;4.696;2023-03-11T14:07:32;8.00;;;1.07;;
19869;SDS011;10097;50.862;4.696;2023-03-11T14:10:18;3.63;;;0.73;;
19869;SDS011;10097;50.862;4.696;2023-03-11T14:12:49;6.43;;;0.77;;
19869;SDS011;10097;50.862;4.696;2023-03-11T14:15:18;5.27;;;0.73;;
19869;SDS011;10097;50.862;4.696;2023-03-11T14:17:52;7.40;;;1.00;;
19869;SDS011;10097;50.862;4.696;2023-03-11T14:20:38;5.13;;;1.10;;
19869;SDS011;10097;50.862;4.696;2023-03-11T14:23:03;5.50;;;1.10;;
19869;SDS011;10097;50.862;4.696;2023-03-11T14:25:38;5.43;;;0.97;;
19869;SDS011;10097;50.862;4.696;2023-03-11T14:28:05;4.07;;;0.90;;
19869;SDS011;10097;50.862;4.696;2023-03-11T14:30:32;6.90;;;1.10;;
19869;SDS011;10097;50.862;4.696;2023-03-11T14:33:04;13.83;;;1.17;;
19869;SDS011;10097;50.862;4.696;2023-03-11T14:35:50;4.33;;;0.70;;
19869;SDS011;10097;50.862;4.696;2023-03-11T14:38:21;6.87;;;1.60;;
19869;SDS011;10097;50.862;4.696;2023-03-11T14:40:55;6.10;;;1.20;;
19869;SDS011;10097;50.862;4.696;2023-03-11T14:43:33;7.87;;;0.97;;
19869;SDS011;10097;50.862;4.696;2023-03-11T14:46:03;6.30;;;1.07;;
19869;SDS011;10097;50.862;4.696;2023-03-11T14:48:37;8.97;;;1.37;;
19869;SDS011;10097;50.862;4.696;2023-03-11T14:51:06;6.23;;;0.97;;
19869;SDS011;10097;50.862;4.696;2023-03-11T14:53:40;9.13;;;1.20;;
19869;SDS011;10097;50.862;4.696;2023-03-11T14:56:15;6.17;;;1.17;;
19869;SDS011;10097;50.862;4.696;2023-03-11T14:59:05;4.87;;;0.90;;
19869;SDS011;10097;50.862;4.696;2023-03-11T15:01:50;7.43;;;0.97;;
19869;SDS011;10097;50.862;4.696;2023-03-11T15:06:56;5.47;;;0.87;;
19869;SDS011;10097;50.862;4.696;2023-03-11T15:09:23;6.63;;;1.13;;
19869;SDS011;10097;50.862;4.696;2023-03-11T15:11:51;4.03;;;1.20;;
19869;SDS011;10097;50.862;4.696;2023-03-11T15:14:27;6.23;;;1.30;;
19869;SDS011;10097;50.862;4.696;2023-03-11T15:17:12;4.10;;;1.23;;
19869;SDS011;10097;50.862;4.696;2023-03-11T15:19:40;4.03;;;1.07;;
19869;SDS011;10097;50.862;4.696;2023-03-11T15:22:27;6.23;;;1.20;;
19869;SDS011;10097;50.862;4.696;2023-03-11T15:25:02;4.93;;;1.20;;
19869;SDS011;10097;50.862;4.696;2023-03-11T15:27:41;4.37;;;1.07;;
19869;SDS011;10097;50.862;4.696;2023-03-11T15:32:47;6.00;;;1.30;;
19869;SDS011;10097;50.862;4.696;2023-03-11T15:35:15;7.30;;;1.00;;
19869;SDS011;10097;50.862;4.696;2023-03-11T15:40:59;6.63;;;1.30;;
19869;SDS011;10097;50.862;4.696;2023-03-11T15:43:30;6.73;;;1.43;;
19869;SDS011;10097;50.862;4.696;2023-03-11T15:45:57;5.53;;;1.10;;
19869;SDS011;10097;50.862;4.696;2023-03-11T15:48:26;8.53;;;1.30;;
19869;SDS011;10097;50.862;4.696;2023-03-11T15:50:54;5.63;;;1.17;;
19869;SDS011;10097;50.862;4.696;2023-03-11T15:53:23;6.13;;;0.80;;
19869;SDS011;10097;50.862;4.696;2023-03-11T15:55:50;10.33;;;1.37;;
19869;SDS011;10097;50.862;4.696;2023-03-11T15:58:18;9.57;;;1.40;;
19869;SDS011;10097;50.862;4.696;2023-03-11T16:00:48;7.53;;;1.00;;
19869;SDS011;10097;50.862;4.696;2023-03-11T16:03:16;5.40;;;1.33;;
19869;SDS011;10097;50.862;4.696;2023-03-11T16:05:42;5.17;;;1.00;;
19869;SDS011;10097;50.862;4.696;2023-03-11T16:08:08;6.70;;;1.40;;
19869;SDS011;10097;50.862;4.696;2023-03-11T16:10:34;9.33;;;1.50;;
19869;SDS011;10097;50.862;4.696;2023-03-11T16:13:01;5.83;;;1.20;;
19869;SDS011;10097;50.862;4.696;2023-03-11T16:15:28;5.73;;;1.33;;
19869;SDS011;10097;50.862;4.696;2023-03-11T16:17:59;9.20;;;1.47;;
19869;SDS011;10097;50.862;4.696;2023-03-11T16:20:27;4.27;;;0.83;;
19869;SDS011;10097;50.862;4.696;2023-03-11T16:23:00;7.37;;;1.23;;
19869;SDS011;10097;50.862;4.696;2023-03-11T16:25:28;7.03;;;1.17;;
19869;SDS011;10097;50.862;4.696;2023-03-11T16:27:57;7.40;;;1.40;;
19869;SDS011;10097;50.862;4.696;2023-03-11T16:30:24;8.20;;;1.47;;
19869;SDS011;10097;50.862;4.696;2023-03-11T16:32:51;6.40;;;1.30;;
19869;SDS011;10097;50.862;4.696;2023-03-11T16:35:17;6.97;;;1.10;;
19869;SDS011;10097;50.862;4.696;2023-03-11T16:37:43;8.27;;;2.13;;